Time;durP1;ratioP1;P1;durP2;ratioP2;P2;SDS_P1;SDS_P2;PMS_P1;PMS_P2;Temp;Humidity;BMP_temperature;BMP_pressure;BME280_temperature;BME280_humidity;BME280_pressure;Samples;Min_cycle;Max_cycle;Signal;HPM_P1;HPM_P2
2021/04/10 00:00:08;;;;;;;7.30;3.10;;;9.60;99.90;;;10.44;100.00;97576.81;5050694;28;20449;-79
2021/04/10 00:02:35;;;;;;;6.00;3.40;;;9.60;99.90;;;10.48;100.00;97588.44;5050940;28;20465;-80
2021/04/10 00:05:06;;;;;;;8.03;3.43;;;9.50;99.90;;;10.49;100.00;97595.28;5052061;28;20893;-80
2021/04/10 00:07:34;;;;;;;6.03;3.10;;;9.50;99.90;;;10.49;100.00;97610.16;5048368;28;20456;-79
2021/04/10 00:10:04;;;;;;;6.70;3.50;;;9.70;99.90;;;10.38;100.00;97616.78;5049782;28;20495;-80
2021/04/10 00:12:31;;;;;;;9.70;3.67;;;9.70;99.90;;;10.31;100.00;97615.94;5046414;28;20841;-79
2021/04/10 00:14:59;;;;;;;7.43;2.83;;;9.70;99.90;;;10.28;100.00;97612.91;5047371;28;20977;-79
2021/04/10 00:17:30;;;;;;;7.70;3.23;;;9.70;99.90;;;10.26;100.00;97610.50;5052496;28;20461;-79
2021/04/10 00:19:58;;;;;;;14.63;3.00;;;9.60;99.90;;;10.30;100.00;97608.31;5047549;28;20813;-79
2021/04/10 00:22:27;;;;;;;5.60;3.13;;;9.70;99.90;;;10.32;100.00;97601.88;5048388;28;20441;-79
2021/04/10 00:24:54;;;;;;;14.00;3.23;;;9.60;99.90;;;10.31;100.00;97597.66;5050562;28;21244;-79
2021/04/10 00:27:22;;;;;;;10.03;3.00;;;9.60;99.90;;;10.30;100.00;97590.81;5047753;28;20580;-79
2021/04/10 00:29:50;;;;;;;7.53;3.30;;;9.60;99.90;;;10.32;100.00;97593.22;5050715;28;20567;-80
2021/04/10 00:32:17;;;;;;;4.57;3.00;;;9.50;99.90;;;10.32;100.00;97583.59;5046882;28;20515;-79
2021/04/10 00:34:45;;;;;;;5.30;3.63;;;9.50;99.90;;;10.31;100.00;97587.19;5051111;28;20885;-80
2021/04/10 00:37:13;;;;;;;6.00;3.33;;;9.40;99.90;;;10.20;100.00;97590.41;5049689;28;21141;-79
2021/04/10 00:39:41;;;;;;;6.80;3.77;;;9.30;99.90;;;10.17;100.00;97585.53;5054678;28;20460;-79
2021/04/10 00:42:13;;;;;;;6.50;3.13;;;9.30;99.90;;;10.21;100.00;97588.56;5053035;28;20491;-79
2021/04/10 00:44:41;;;;;;;5.63;3.00;;;9.40;99.90;;;10.13;100.00;97577.25;5050490;28;20784;-79
2021/04/10 00:47:10;;;;;;;6.23;3.37;;;9.30;99.90;;;10.09;100.00;97577.84;5051443;28;20496;-79
2021/04/10 00:49:38;;;;;;;6.67;3.80;;;9.30;99.90;;;10.08;100.00;97581.47;5056848;28;20456;-79
2021/04/10 00:52:09;;;;;;;9.63;3.63;;;9.20;99.90;;;10.08;100.00;97577.03;5055582;28;20490;-79
2021/04/10 00:54:38;;;;;;;8.97;4.00;;;9.20;99.90;;;10.15;100.00;97571.06;5055387;28;20460;-79
2021/04/10 00:57:08;;;;;;;8.03;3.80;;;9.30;99.90;;;10.14;100.00;97565.03;5051003;28;20469;-79
2021/04/10 00:59:36;;;;;;;6.60;3.27;;;9.30;99.90;;;10.11;100.00;97560.16;5051544;28;20464;-79
2021/04/10 01:02:08;;;;;;;8.90;3.13;;;9.30;99.90;;;10.12;100.00;97561.78;5046518;28;20465;-80
2021/04/10 01:04:36;;;;;;;8.20;3.60;;;9.30;99.90;;;10.15;100.00;97560.63;5052366;28;20500;-80
2021/04/10 01:07:04;;;;;;;9.83;3.40;;;9.30;99.90;;;10.17;100.00;97562.03;5050544;28;20480;-79
2021/04/10 01:09:33;;;;;;;6.60;2.90;;;9.30;99.90;;;10.19;100.00;97556.63;5052444;28;20445;-79
2021/04/10 01:12:26;;;;;;;6.33;3.00;;;9.30;99.90;;;10.16;100.00;97547.38;5052889;28;20472;-79
2021/04/10 01:15:12;;;;;;;4.60;2.87;;;9.30;99.90;;;10.19;100.00;97551.38;5044970;28;20465;-79
2021/04/10 01:17:48;;;;;;;6.47;3.93;;;9.40;99.90;;;10.20;100.00;97547.78;5055118;28;20460;-79
2021/04/10 01:20:48;;;;;;;4.60;3.20;;;9.40;99.90;;;10.16;100.00;97549.97;5051653;28;20460;-80
2021/04/10 01:23:54;;;;;;;6.03;3.53;;;9.30;99.90;;;10.18;100.00;97553.19;5046431;28;20579;-79
2021/04/10 01:26:43;;;;;;;8.17;3.07;;;9.30;99.90;;;10.15;100.00;97548.34;5045788;28;20493;-79
2021/04/10 01:29:16;;;;;;;6.00;3.77;;;9.30;99.90;;;10.16;100.00;97551.78;5053222;28;20453;-79
2021/04/10 01:31:50;;;;;;;6.03;3.87;;;9.30;99.90;;;10.16;100.00;97551.78;5056550;28;20444;-80
2021/04/10 01:34:26;;;;;;;8.53;3.70;;;9.30;99.90;;;10.07;100.00;97549.31;5056840;28;20453;-79
2021/04/10 01:36:58;;;;;;;6.27;3.70;;;9.20;99.90;;;10.10;100.00;97558.53;5061699;28;20483;-79
2021/04/10 01:39:28;;;;;;;9.33;3.53;;;9.20;99.90;;;10.07;100.00;97570.19;5055992;28;20453;-79
2021/04/10 01:41:56;;;;;;;4.63;3.33;;;9.10;99.90;;;10.09;100.00;97565.59;5062324;28;20488;-79
2021/04/10 01:44:27;;;;;;;6.23;3.73;;;9.20;99.90;;;10.13;100.00;97563.41;5050758;28;20979;-79
2021/04/10 01:46:59;;;;;;;5.50;3.63;;;9.30;99.90;;;10.18;100.00;97563.63;5050689;28;20901;-79
2021/04/10 01:49:28;;;;;;;11.50;3.20;;;9.30;99.90;;;10.18;100.00;97579.31;5044210;28;20917;-79
2021/04/10 01:51:58;;;;;;;5.43;3.00;;;9.20;99.90;;;10.18;100.00;97581.94;5048567;28;20453;-80
2021/04/10 01:54:26;;;;;;;6.80;3.30;;;9.30;99.90;;;10.21;100.00;97583.34;5050113;28;20464;-79
2021/04/10 01:56:55;;;;;;;6.60;4.30;;;9.30;99.90;;;10.19;100.00;97586.16;5054996;28;20514;-79
2021/04/10 01:59:25;;;;;;;9.60;3.73;;;9.30;99.90;;;10.21;100.00;97589.38;5057914;28;21003;-80
2021/04/10 02:01:55;;;;;;;5.50;3.30;;;9.40;99.90;;;10.21;100.00;97588.56;5058153;28;20456;-80
2021/04/10 02:04:23;;;;;;;5.47;3.30;;;9.40;99.90;;;10.19;100.00;97588.78;5055238;28;20509;-79
2021/04/10 02:06:52;;;;;;;6.20;3.30;;;9.30;99.90;;;10.18;100.00;97597.59;5053334;28;20509;-79
2021/04/10 02:09:22;;;;;;;6.17;3.23;;;9.20;99.90;;;10.14;100.00;97596.38;5059014;28;20944;-80
2021/04/10 02:11:52;;;;;;;5.97;3.23;;;9.00;99.90;;;10.14;100.00;97593.75;5056034;28;20868;-79
2021/04/10 02:14:22;;;;;;;10.47;3.33;;;9.30;99.90;;;10.17;100.00;97597.81;5046569;28;20465;-79
2021/04/10 02:16:52;;;;;;;8.67;3.67;;;9.30;99.90;;;10.14;100.00;97601.59;5045699;28;21021;-80
2021/04/10 02:19:20;;;;;;;8.17;3.77;;;9.20;99.90;;;10.13;100.00;97599.16;5056351;28;20872;-79
2021/04/10 02:21:47;;;;;;;5.70;3.20;;;9.30;99.90;;;10.14;100.00;97601.59;5050486;28;20469;-80
2021/04/10 02:24:15;;;;;;;6.17;3.90;;;9.30;99.90;;;10.21;100.00;97601.63;5056256;28;20866;-79
2021/04/10 02:26:43;;;;;;;7.07;3.83;;;9.30;99.90;;;10.20;100.00;97597.44;5055748;28;20825;-79
2021/04/10 02:29:11;;;;;;;4.63;3.37;;;9.30;99.90;;;10.21;100.00;97596.41;5050638;28;20991;-79
2021/04/10 02:31:46;;;;;;;3.90;3.20;;;9.30;99.90;;;10.22;100.00;97593.59;5053749;28;20991;-79
2021/04/10 02:34:19;;;;;;;7.87;3.30;;;9.30;99.90;;;10.23;100.00;97595.22;5056358;28;20956;-79
2021/04/10 02:36:50;;;;;;;7.40;2.80;;;9.30;99.90;;;10.27;100.00;97596.44;5052362;28;20806;-80
2021/04/10 02:39:22;;;;;;;3.73;3.43;;;9.40;99.90;;;10.28;100.00;97592.00;5050693;28;20487;-79
2021/04/10 02:41:54;;;;;;;8.97;3.20;;;9.40;99.90;;;10.30;100.00;97590.03;5052157;28;20501;-79
2021/04/10 02:44:34;;;;;;;9.80;2.77;;;9.50;99.90;;;10.26;100.00;97580.97;5057246;28;20472;-79
2021/04/10 02:47:08;;;;;;;11.33;3.30;;;9.50;99.90;;;10.25;100.00;97581.94;5055169;28;20496;-79
2021/04/10 02:49:42;;;;;;;11.10;4.00;;;9.40;99.90;;;10.25;100.00;97572.31;5050305;28;21128;-79
2021/04/10 02:52:14;;;;;;;11.10;2.90;;;9.40;99.90;;;10.29;100.00;97572.72;5050072;28;20879;-79
2021/04/10 02:54:49;;;;;;;5.93;3.33;;;9.40;99.90;;;10.24;100.00;97577.75;5051522;28;20468;-79
2021/04/10 02:57:20;;;;;;;10.13;3.67;;;9.40;99.90;;;10.25;100.00;97574.09;5043463;28;20474;-80
2021/04/10 02:59:54;;;;;;;4.50;3.37;;;9.40;99.90;;;10.27;100.00;97580.78;5047457;28;20453;-80
2021/04/10 03:02:23;;;;;;;5.33;3.37;;;9.40;99.90;;;10.27;100.00;97580.78;5060186;28;20482;-79
2021/04/10 03:04:54;;;;;;;5.83;4.07;;;9.40;99.90;;;10.27;100.00;97582.56;5056586;28;20472;-80
2021/04/10 03:07:23;;;;;;;8.93;3.73;;;9.40;99.90;;;10.28;100.00;97587.59;5041824;28;21017;-79
2021/04/10 03:09:52;;;;;;;4.73;3.53;;;9.40;99.90;;;10.28;100.00;97597.22;5044487;28;21057;-79
2021/04/10 03:12:22;;;;;;;5.40;3.30;;;9.40;99.90;;;10.29;100.00;97588.41;5054014;28;20980;-79
2021/04/10 03:14:51;;;;;;;8.40;2.83;;;9.40;99.90;;;10.30;100.00;97585.59;5049636;28;20965;-79
2021/04/10 03:17:25;;;;;;;3.80;2.90;;;9.40;99.90;;;10.28;100.00;97582.38;5057393;28;20444;-79
2021/04/10 03:19:55;;;;;;;4.70;3.10;;;9.50;99.90;;;10.27;100.00;97599.06;5060685;28;20456;-79
2021/04/10 03:22:23;;;;;;;5.20;3.30;;;9.40;99.90;;;10.26;100.00;97600.06;5046308;28;20461;-80
2021/04/10 03:24:50;;;;;;;4.47;3.00;;;9.50;99.90;;;10.28;100.00;97592.00;5051163;28;20456;-79
2021/04/10 03:27:18;;;;;;;11.37;3.40;;;9.40;99.90;;;10.31;100.00;97592.41;5056516;28;20543;-79
2021/04/10 03:29:47;;;;;;;8.30;3.70;;;9.40;99.90;;;10.33;100.00;97595.66;5053509;28;20801;-80
2021/04/10 03:32:27;;;;;;;4.80;3.40;;;9.50;99.90;;;10.29;100.00;97599.66;5053524;28;20550;-79
2021/04/10 03:34:56;;;;;;;6.60;3.40;;;9.50;99.90;;;10.26;100.00;97605.28;5042991;28;20464;-79
2021/04/10 03:37:25;;;;;;;7.33;3.17;;;9.50;99.90;;;10.28;100.00;97607.69;5051230;28;21152;-79
2021/04/10 03:39:53;;;;;;;9.93;4.70;;;9.50;99.90;;;10.28;100.00;97608.50;5053858;28;20876;-84
2021/04/10 03:42:35;;;;;;;16.77;9.90;;;9.40;99.90;;;10.28;100.00;97612.91;5051641;28;20554;-79
2021/04/10 03:45:05;;;;;;;8.23;4.93;;;9.40;99.90;;;10.28;100.00;97613.72;5048458;28;20464;-79
2021/04/10 03:47:53;;;;;;;6.47;4.20;;;9.40;99.90;;;10.31;100.00;97615.94;5040892;28;20456;-80
2021/04/10 03:50:23;;;;;;;6.20;3.70;;;9.40;99.90;;;10.30;100.00;97618.75;5047272;28;20461;-87
2021/04/10 03:52:51;;;;;;;10.60;4.60;;;9.30;99.90;;;10.28;100.00;97623.34;5048638;28;20608;-81
2021/04/10 03:55:21;;;;;;;5.83;3.83;;;9.30;99.90;;;10.28;100.00;97620.75;5045076;28;20468;-79
2021/04/10 03:57:49;;;;;;;12.90;4.67;;;9.30;99.90;;;10.23;100.00;97623.97;5049167;28;20875;-79
2021/04/10 04:00:17;;;;;;;8.37;3.87;;;9.30;99.90;;;10.23;100.00;97621.34;5051694;28;20452;-79
2021/04/10 04:02:45;;;;;;;4.70;3.80;;;9.20;99.90;;;10.23;100.00;97625.78;5052363;28;20811;-79
2021/04/10 04:05:13;;;;;;;6.10;3.40;;;9.20;99.90;;;10.21;100.00;97618.13;5047923;28;20445;-79
2021/04/10 04:07:42;;;;;;;5.73;4.10;;;9.20;99.90;;;10.21;100.00;97617.31;5053829;28;20509;-83
2021/04/10 04:10:11;;;;;;;7.40;4.07;;;9.30;99.90;;;10.19;100.00;97625.34;5048159;28;20475;-80
2021/04/10 04:12:38;;;;;;;6.23;4.50;;;9.30;99.90;;;10.13;100.00;97633.94;5043305;28;20469;-79
2021/04/10 04:15:07;;;;;;;8.23;4.17;;;9.20;99.90;;;10.13;100.00;97631.34;5050993;28;20952;-79
2021/04/10 04:17:35;;;;;;;4.30;3.43;;;9.20;99.90;;;10.07;100.00;97637.31;5048714;28;20453;-78
2021/04/10 04:20:05;;;;;;;4.57;3.53;;;9.10;99.90;;;10.00;100.00;97641.69;5047928;28;20441;-82
2021/04/10 04:22:33;;;;;;;7.00;4.67;;;9.00;99.90;;;9.98;100.00;97636.69;5050805;28;20532;-83
2021/04/10 04:25:07;;;;;;;10.50;5.13;;;9.20;99.90;;;9.87;100.00;97642.44;5054069;28;20452;-84
2021/04/10 04:27:35;;;;;;;6.70;4.30;;;8.90;99.90;;;9.96;100.00;97641.28;5052672;28;20489;-78
2021/04/10 04:30:04;;;;;;;6.47;4.60;;;9.00;99.90;;;9.96;100.00;97643.09;5051025;28;20461;-78
2021/04/10 04:32:32;;;;;;;6.00;4.13;;;9.00;99.90;;;10.00;100.00;97650.34;5051539;28;20437;-78
2021/04/10 04:35:01;;;;;;;12.03;4.50;;;9.10;99.90;;;10.00;100.00;97649.53;5055465;28;20437;-78
2021/04/10 04:37:28;;;;;;;9.70;4.33;;;9.10;99.90;;;10.01;100.00;97654.56;5051533;28;20465;-78
2021/04/10 04:39:56;;;;;;;5.77;4.20;;;9.10;99.90;;;10.03;100.00;97651.78;5054775;28;20433;-78
2021/04/10 04:42:25;;;;;;;6.80;4.50;;;9.10;99.90;;;10.01;100.00;97653.75;5053552;28;20475;-78
2021/04/10 04:44:52;;;;;;;4.80;4.03;;;9.10;99.90;;;10.00;100.00;97658.19;5052165;28;20922;-78
2021/04/10 04:47:20;;;;;;;8.20;5.70;;;9.10;99.90;;;10.01;100.00;97669.44;5050794;28;20959;-78
2021/04/10 04:49:47;;;;;;;8.57;4.83;;;9.10;99.90;;;10.03;100.00;97672.69;5046013;28;20453;-78
2021/04/10 04:52:15;;;;;;;8.17;5.40;;;9.10;99.90;;;10.02;100.00;97678.91;5045617;28;20449;-78
2021/04/10 04:54:43;;;;;;;6.77;5.53;;;9.00;99.90;;;10.02;100.00;97686.72;5047522;28;20438;-78
2021/04/10 04:57:10;;;;;;;10.37;5.43;;;9.10;99.90;;;10.03;100.00;97686.53;5046226;28;20441;-78
2021/04/10 04:59:38;;;;;;;6.07;4.87;;;9.10;99.90;;;10.03;100.00;97690.97;5052962;28;20498;-78
2021/04/10 05:02:06;;;;;;;10.93;5.80;;;9.10;99.90;;;10.04;100.00;97692.56;5047476;28;20445;-78
2021/04/10 05:04:34;;;;;;;10.37;6.13;;;9.10;99.90;;;10.03;100.00;97698.81;5051467;28;20492;-77
2021/04/10 05:07:02;;;;;;;9.13;6.57;;;9.10;99.90;;;10.03;100.00;97694.34;5049981;28;21034;-78
2021/04/10 05:09:30;;;;;;;7.60;5.57;;;9.10;99.90;;;10.04;100.00;97695.97;5048385;28;20445;-78
2021/04/10 05:11:58;;;;;;;10.20;6.00;;;9.10;99.90;;;10.05;100.00;97696.78;5055231;28;20450;-78
2021/04/10 05:14:25;;;;;;;7.93;5.73;;;9.10;99.90;;;9.97;100.00;97702.16;5054035;28;20829;-78
2021/04/10 05:16:54;;;;;;;20.53;4.97;;;9.00;99.90;;;9.96;100.00;97703.19;5055883;28;20528;-78
2021/04/10 05:19:22;;;;;;;6.00;4.97;;;9.00;99.90;;;9.96;100.00;97697.94;5058996;28;20531;-78
2021/04/10 05:21:49;;;;;;;5.60;4.77;;;8.90;99.90;;;9.98;100.00;97701.97;5054933;28;20464;-78
2021/04/10 05:24:17;;;;;;;7.53;5.50;;;9.00;99.90;;;9.98;100.00;97701.97;5050953;28;20452;-78
2021/04/10 05:26:44;;;;;;;11.10;6.00;;;9.00;99.90;;;9.99;100.00;97713.25;5052436;28;20488;-78
2021/04/10 05:29:12;;;;;;;6.30;4.90;;;9.10;99.90;;;9.99;100.00;97702.78;5052087;28;20437;-78
2021/04/10 05:31:40;;;;;;;10.03;5.80;;;9.00;99.90;;;9.98;100.00;97712.44;5057264;28;20802;-78
2021/04/10 05:34:08;;;;;;;13.90;5.37;;;9.00;99.90;;;9.93;100.00;97719.19;5058603;28;20449;-78
2021/04/10 05:36:36;;;;;;;10.27;5.13;;;9.00;99.90;;;9.92;100.00;97718.41;5058117;28;20448;-78
2021/04/10 05:39:04;;;;;;;10.83;5.07;;;9.00;99.90;;;9.94;100.00;97720.81;5056501;28;20449;-78
2021/04/10 05:41:32;;;;;;;8.73;4.47;;;9.00;99.90;;;9.92;100.00;97726.25;5058355;28;20492;-78
2021/04/10 05:44:00;;;;;;;12.47;6.13;;;9.00;99.90;;;9.94;100.00;97726.06;5053611;28;20444;-78
2021/04/10 05:46:27;;;;;;;8.50;6.00;;;9.00;99.90;;;9.90;100.00;97715.19;5049084;28;20538;-78
2021/04/10 05:48:55;;;;;;;6.90;5.60;;;8.90;99.90;;;9.91;100.00;97719.41;5052567;28;20452;-78
2021/04/10 05:51:24;;;;;;;9.17;6.80;;;8.90;99.90;;;9.92;100.00;97728.06;5053897;28;20948;-78
2021/04/10 05:53:51;;;;;;;9.77;5.70;;;8.90;99.90;;;9.91;100.00;97723.81;5053742;28;20452;-78
2021/04/10 05:56:19;;;;;;;10.70;6.10;;;9.00;99.90;;;9.94;100.00;97731.28;5054126;28;20441;-78
2021/04/10 05:58:46;;;;;;;8.33;6.07;;;9.00;99.90;;;9.90;100.00;97730.84;5053731;28;20861;-78
2021/04/10 06:01:14;;;;;;;7.30;6.07;;;8.90;99.90;;;9.89;100.00;97731.84;5053867;28;20841;-78
2021/04/10 06:03:42;;;;;;;16.03;6.33;;;8.90;99.90;;;9.90;100.00;97735.25;5051522;28;20446;-78
2021/04/10 06:06:11;;;;;;;12.67;7.03;;;8.90;99.90;;;9.93;100.00;97740.09;5054241;28;20846;-78
2021/04/10 06:08:40;;;;;;;9.10;6.43;;;9.00;99.90;;;9.96;100.00;97734.53;5051335;28;20433;-78
2021/04/10 06:11:07;;;;;;;8.30;5.87;;;9.00;99.90;;;9.96;100.00;97740.53;5047481;28;20452;-78
2021/04/10 06:13:35;;;;;;;8.03;6.07;;;9.00;99.90;;;9.98;100.00;97732.50;5047847;28;20465;-78
2021/04/10 06:16:06;;;;;;;9.40;6.10;;;9.10;99.90;;;9.97;100.00;97736.91;5053614;28;20445;-78
2021/04/10 06:18:34;;;;;;;11.00;5.60;;;9.10;99.90;;;9.95;100.00;97732.91;5053184;28;20465;-77
2021/04/10 06:21:01;;;;;;;7.53;5.80;;;9.10;99.90;;;9.94;100.00;97742.53;5047942;28;20446;-78
2021/04/10 06:23:29;;;;;;;10.40;5.97;;;9.00;99.90;;;9.90;100.00;97740.47;5052942;28;20448;-78
2021/04/10 06:25:57;;;;;;;10.53;6.30;;;8.90;99.90;;;9.93;100.00;97734.88;5050123;28;20449;-78
2021/04/10 06:28:25;;;;;;;7.00;5.20;;;9.00;99.90;;;9.94;100.00;97739.09;5054687;28;20453;-78
2021/04/10 06:30:53;;;;;;;9.17;6.50;;;8.90;99.90;;;9.87;100.00;97746.91;5052557;28;20954;-78
2021/04/10 06:33:23;;;;;;;8.17;5.63;;;9.00;99.90;;;9.86;100.00;97747.06;5052855;28;21713;-78
2021/04/10 06:35:51;;;;;;;10.00;6.83;;;8.90;99.90;;;9.91;100.00;97748.13;5052461;28;20453;-78
2021/04/10 06:38:19;;;;;;;7.93;6.37;;;9.00;99.90;;;9.95;100.00;97746.78;5052214;28;20457;-78
2021/04/10 06:40:47;;;;;;;8.10;6.10;;;9.00;99.90;;;9.98;100.00;97749.00;5053351;28;20477;-78
2021/04/10 06:43:17;;;;;;;10.37;6.60;;;9.00;99.90;;;10.03;100.00;97745.81;5051904;28;20437;-78
2021/04/10 06:45:45;;;;;;;8.70;5.97;;;9.20;99.90;;;10.03;100.00;97751.81;5053110;28;20441;-78
2021/04/10 06:48:14;;;;;;;6.93;6.20;;;9.20;99.90;;;10.00;100.00;97751.41;5051649;28;20558;-78
2021/04/10 06:50:44;;;;;;;10.40;6.33;;;9.20;99.90;;;9.99;100.00;97752.41;5049330;28;20454;-78
2021/04/10 06:53:16;;;;;;;8.33;6.27;;;9.10;99.90;;;9.97;100.00;97752.59;5053504;28;20802;-78
2021/04/10 06:55:50;;;;;;;8.60;6.60;;;9.10;99.90;;;9.98;100.00;97758.63;5050043;28;20449;-78
2021/04/10 06:58:43;;;;;;;10.80;7.20;;;9.10;99.90;;;10.02;100.00;97752.84;5051876;28;20452;-78
2021/04/10 07:01:14;;;;;;;11.30;7.03;;;9.20;99.90;;;10.03;100.00;97758.88;5052310;28;20829;-78
2021/04/10 07:03:45;;;;;;;9.43;6.73;;;9.10;99.90;;;10.05;100.00;97764.72;5059183;28;20453;-78
2021/04/10 07:06:15;;;;;;;7.67;5.70;;;9.10;99.90;;;10.06;100.00;97771.56;5052115;28;20522;-78
2021/04/10 07:08:43;;;;;;;7.73;5.70;;;9.10;99.90;;;10.05;100.00;97769.94;5048401;28;20449;-78
2021/04/10 07:11:12;;;;;;;8.70;5.60;;;9.20;99.90;;;10.06;100.00;97767.16;5062301;28;20463;-78
2021/04/10 07:13:42;;;;;;;7.90;5.80;;;9.30;99.90;;;10.04;100.00;97770.91;5050504;28;20468;-78
2021/04/10 07:16:11;;;;;;;5.57;4.07;;;9.30;99.90;;;9.93;100.00;97779.28;5061055;28;20444;-78
2021/04/10 07:18:39;;;;;;;5.57;4.10;;;9.10;99.90;;;9.98;100.00;97771.69;5058856;28;20566;-78
2021/04/10 07:21:19;;;;;;;7.23;3.93;;;9.20;99.90;;;10.03;100.00;97782.38;5054886;28;20468;-79
2021/04/10 07:23:52;;;;;;;4.17;3.70;;;9.20;99.90;;;10.06;100.00;97782.81;5054317;28;20447;-78
2021/04/10 07:26:42;;;;;;;6.50;3.23;;;9.40;99.90;;;10.04;100.00;97783.97;5053164;28;20481;-78
2021/04/10 07:29:30;;;;;;;3.63;3.00;;;9.40;99.90;;;10.04;100.00;97789.22;5052071;28;20456;-78
2021/04/10 07:32:00;;;;;;;3.07;2.50;;;9.40;99.90;;;9.97;100.00;97791.78;5056881;28;20901;-79
2021/04/10 07:34:28;;;;;;;4.47;3.50;;;9.30;99.90;;;10.01;100.00;97793.00;5052981;28;20447;-78
2021/04/10 07:37:01;;;;;;;4.10;3.07;;;9.30;99.90;;;9.99;100.00;97809.88;5058772;28;20464;-78
2021/04/10 07:39:44;;;;;;;5.60;3.03;;;9.20;99.90;;;9.89;100.00;97804.97;5055290;28;20874;-78
2021/04/10 07:42:13;;;;;;;2.93;2.40;;;9.10;99.90;;;9.88;100.00;97799.94;5055341;28;20476;-78
2021/04/10 07:44:43;;;;;;;9.27;3.20;;;9.10;99.90;;;9.75;100.00;97810.28;5051527;28;20443;-78
2021/04/10 07:47:11;;;;;;;3.83;2.50;;;9.00;99.90;;;9.70;100.00;97802.19;5048442;28;20500;-78
2021/04/10 07:49:39;;;;;;;5.00;2.40;;;9.00;99.90;;;9.59;100.00;97819.16;5052825;28;20460;-78
2021/04/10 07:52:08;;;;;;;2.77;2.10;;;8.90;99.90;;;9.61;100.00;97812.75;5053872;28;20445;-78
2021/04/10 07:54:39;;;;;;;4.50;1.90;;;8.90;99.90;;;9.64;100.00;97813.38;5050666;28;20599;-78
2021/04/10 07:57:09;;;;;;;3.40;2.17;;;9.00;99.90;;;9.60;100.00;97813.75;5051439;28;20952;-78
2021/04/10 07:59:56;;;;;;;4.00;2.20;;;8.90;99.90;;;9.54;100.00;97821.53;5054010;28;20926;-78
2021/04/10 08:02:24;;;;;;;3.17;2.20;;;8.80;99.90;;;9.56;100.00;97820.34;5047906;28;20536;-79
2021/04/10 08:04:57;;;;;;;6.20;2.40;;;8.90;99.90;;;9.43;100.00;97814.19;5047391;28;20823;-78
2021/04/10 08:07:26;;;;;;;8.43;2.30;;;8.70;99.90;;;9.46;100.00;97825.06;5050923;28;20588;-79
2021/04/10 08:09:59;;;;;;;4.07;2.50;;;8.80;99.90;;;9.41;100.00;97824.78;5051058;28;20448;-79
2021/04/10 08:12:29;;;;;;;2.43;2.10;;;8.80;99.90;;;9.36;100.00;97826.34;5050777;28;20454;-79
2021/04/10 08:14:58;;;;;;;2.70;1.97;;;8.60;99.90;;;9.35;100.00;97835.16;5050588;28;20801;-78
2021/04/10 08:17:36;;;;;;;7.63;1.93;;;8.50;99.90;;;9.38;100.00;97829.56;5049288;28;20818;-78
2021/04/10 08:20:24;;;;;;;2.63;2.23;;;8.60;99.90;;;9.30;100.00;97827.88;5049749;28;20444;-79
2021/04/10 08:22:53;;;;;;;3.53;2.03;;;8.50;99.90;;;9.37;100.00;97823.53;5050845;28;20480;-78
2021/04/10 08:25:32;;;;;;;2.33;1.67;;;8.60;99.90;;;9.37;100.00;97828.75;5050932;28;20433;-78
2021/04/10 08:28:01;;;;;;;2.73;2.23;;;8.60;99.90;;;9.41;100.00;97819.56;5050642;28;20495;-78
2021/04/10 08:30:30;;;;;;;4.30;2.43;;;8.70;99.90;;;9.38;100.00;97825.16;5053709;28;20967;-78
2021/04/10 08:32:58;;;;;;;6.80;2.87;;;8.70;99.90;;;9.26;100.00;97826.66;5054942;28;20445;-77
2021/04/10 08:35:26;;;;;;;6.77;2.43;;;8.50;99.90;;;9.29;100.00;97836.72;5059883;28;20441;-78
2021/04/10 08:38:00;;;;;;;5.57;2.63;;;8.50;99.90;;;9.32;100.00;97838.97;5051519;28;20466;-78
2021/04/10 08:40:30;;;;;;;3.43;2.20;;;8.40;99.90;;;9.29;100.00;97843.75;5051190;28;20440;-78
2021/04/10 08:43:02;;;;;;;3.57;1.97;;;8.40;99.90;;;9.28;100.00;97848.16;5053018;28;20456;-78
2021/04/10 08:45:34;;;;;;;4.13;2.57;;;8.40;99.90;;;9.42;100.00;97841.25;5051158;28;20449;-78
2021/04/10 08:48:06;;;;;;;2.10;1.80;;;8.60;99.90;;;9.40;100.00;97843.25;5051892;28;20827;-79
2021/04/10 08:50:40;;;;;;;1.70;1.60;;;8.60;99.90;;;9.36;100.00;97848.03;5050932;28;20441;-78
2021/04/10 08:53:12;;;;;;;4.30;1.97;;;8.50;99.90;;;9.44;100.00;97845.31;5051551;28;20445;-78
2021/04/10 08:55:40;;;;;;;4.23;2.17;;;8.70;99.90;;;9.50;100.00;97843.78;5053758;28;20448;-78
2021/04/10 09:01:43;;;;;;;1.93;1.83;;;8.90;99.90;;;9.51;100.00;97840.97;5047928;28;20488;-78
2021/04/10 09:04:12;;;;;;;3.30;2.37;;;8.80;99.90;;;9.49;100.00;97839.53;5047811;28;20450;-78
2021/04/10 09:06:53;;;;;;;2.33;1.87;;;8.70;99.90;;;9.57;100.00;97839.44;5054183;28;20867;-78
2021/04/10 09:09:31;;;;;;;2.73;1.77;;;8.70;99.90;;;9.57;100.00;97842.84;5054793;28;20800;-78
2021/04/10 09:12:26;;;;;;;2.23;2.03;;;8.80;99.90;;;9.65;100.00;97851.56;5052022;28;20464;-78
2021/04/10 09:14:55;;;;;;;3.50;2.13;;;8.90;99.90;;;9.69;100.00;97845.75;5053341;28;20987;-78
2021/04/10 09:19:01;;;;;;;;;;;;;;;;;;;;;
2021/04/10 09:21:56;;;;;;;2.50;1.83;;;9.00;99.90;;;9.71;100.00;97845.59;4998610;28;20472;-78
2021/04/10 09:24:31;;;;;;;3.97;2.93;;;8.90;99.90;;;9.69;100.00;97844.94;5054170;28;20808;-78
2021/04/10 09:27:06;;;;;;;7.73;2.27;;;8.90;99.90;;;9.55;100.00;97852.66;5050809;28;20569;-78
2021/04/10 09:29:52;;;;;;;2.00;1.80;;;8.70;99.90;;;9.63;100.00;97845.69;5052531;28;20864;-78
2021/04/10 09:32:40;;;;;;;3.67;2.47;;;8.80;99.90;;;9.64;100.00;97842.09;5056128;28;20465;-77
2021/04/10 09:35:14;;;;;;;3.80;2.40;;;8.90;99.90;;;9.59;100.00;97846.06;5058878;28;20523;-78
2021/04/10 09:37:59;;;;;;;4.10;2.30;;;8.60;99.90;;;9.60;100.00;97850.31;5057584;28;20459;-77
2021/04/10 09:40:50;;;;;;;3.17;2.70;;;8.80;99.90;;;9.69;100.00;97847.56;5053806;28;20445;-77
2021/04/10 09:51:34;;;;;;;3.77;2.00;;;8.90;99.90;;;9.77;100.00;97844.84;5044714;28;20467;-79
2021/04/10 09:54:04;;;;;;;2.67;2.00;;;8.90;99.90;;;9.74;100.00;97840.00;5048624;28;20453;-79
2021/04/10 09:56:32;;;;;;;7.33;2.80;;;9.00;99.90;;;9.76;100.00;97848.44;5056311;28;20440;-78
2021/04/10 09:59:03;;;;;;;3.60;2.30;;;9.00;99.90;;;9.77;100.00;97847.44;5055683;28;20453;-78
2021/04/10 10:01:38;;;;;;;5.00;2.20;;;9.00;99.90;;;9.79;100.00;97842.88;5054107;28;20450;-78
2021/04/10 10:04:13;;;;;;;2.60;2.40;;;9.00;99.90;;;9.80;100.00;97845.28;5060025;28;20527;-78
2021/04/10 10:06:46;;;;;;;2.93;2.63;;;9.10;99.90;;;9.80;100.00;97849.69;5060402;28;20449;-78
2021/04/10 10:09:30;;;;;;;3.50;2.50;;;9.20;99.90;;;9.81;100.00;97844.28;5062229;28;20531;-78
2021/04/10 10:11:59;;;;;;;4.10;2.87;;;9.10;99.90;;;9.88;100.00;97841.72;5057272;28;20460;-77
2021/04/10 10:14:44;;;;;;;5.03;2.47;;;9.20;99.90;;;9.92;100.00;97843.78;5055881;28;20465;-78
2021/04/10 10:17:12;;;;;;;2.80;2.53;;;9.20;99.90;;;9.92;100.00;97837.75;5059111;28;20481;-78
2021/04/10 10:19:40;;;;;;;4.73;2.50;;;9.30;99.90;;;9.92;100.00;97842.97;5057625;28;20468;-78
2021/04/10 10:22:27;;;;;;;4.97;2.37;;;9.30;99.90;;;9.92;100.00;97837.75;5059526;28;20440;-78
2021/04/10 10:25:02;;;;;;;5.17;3.40;;;9.30;99.90;;;9.96;100.00;97836.38;5048671;28;20441;-78
2021/04/10 10:27:37;;;;;;;10.23;3.63;;;9.20;99.90;;;9.96;100.00;97833.78;5051886;28;20500;-78
2021/04/10 10:30:13;;;;;;;5.33;2.93;;;9.20;99.90;;;9.97;100.00;97835.38;5055675;28;20445;-78
2021/04/10 10:32:48;;;;;;;8.60;2.63;;;9.30;99.90;;;9.96;100.00;97829.31;5055914;28;20469;-78
2021/04/10 10:35:19;;;;;;;5.03;3.30;;;9.30;99.90;;;9.98;100.00;97829.16;5057784;28;20447;-78
2021/04/10 10:37:47;;;;;;;4.97;2.73;;;9.20;99.90;;;9.93;100.00;97824.47;5056055;28;20465;-78
2021/04/10 10:40:26;;;;;;;5.27;3.23;;;9.10;99.90;;;9.97;100.00;97819.69;5059764;28;20465;-79
2021/04/10 10:43:07;;;;;;;3.47;2.40;;;9.30;99.90;;;10.01;100.00;97820.94;5055848;28;20444;-79
2021/04/10 10:45:46;;;;;;;3.47;2.63;;;9.40;99.90;;;10.02;100.00;97817.34;5053140;28;20491;-78
2021/04/10 10:48:24;;;;;;;3.83;2.60;;;9.30;99.90;;;10.02;100.00;97814.72;5054888;28;20570;-77
2021/04/10 10:50:55;;;;;;;11.27;6.03;;;9.40;99.90;;;10.05;100.00;97811.72;5054932;28;20460;-78
2021/04/10 10:53:25;;;;;;;4.20;2.17;;;9.30;99.90;;;9.87;100.00;97824.44;5054022;28;20781;-78